createdAt,value
2022-08-01T00:02:15.651Z,3.73
2022-08-01T00:04:48.049Z,4.20
2022-08-01T00:07:16.913Z,3.50
2022-08-01T00:09:52.450Z,4.13
2022-08-01T00:12:33.909Z,4.10
2022-08-01T00:15:07.910Z,4.37
2022-08-01T00:17:39.736Z,4.37
2022-08-01T00:20:12.811Z,3.73
2022-08-01T00:22:42.031Z,4.30
2022-08-01T00:25:12.777Z,3.97
2022-08-01T00:27:43.732Z,4.30
2022-08-01T00:30:14.961Z,4.33
2022-08-01T00:32:48.141Z,4.10
2022-08-01T00:35:19.715Z,4.27
2022-08-01T00:37:52.761Z,5.00
2022-08-01T00:40:21.853Z,4.27
2022-08-01T00:42:56.149Z,4.33
2022-08-01T00:45:29.818Z,4.00
2022-08-01T00:48:00.871Z,3.47
2022-08-01T00:50:30.007Z,4.03
2022-08-01T00:53:01.932Z,3.67
2022-08-01T00:55:36.709Z,4.50
2022-08-01T00:58:16.684Z,4.30
2022-08-01T01:00:52.632Z,4.37
2022-08-01T01:03:58.024Z,4.20
2022-08-01T01:06:35.232Z,4.30
2022-08-01T01:09:24.367Z,4.33
2022-08-01T01:12:15.098Z,4.30
2022-08-01T01:14:59.380Z,4.50
2022-08-01T01:17:50.453Z,4.83
2022-08-01T01:20:24.261Z,4.70
2022-08-01T01:23:27.114Z,3.90
2022-08-01T01:26:26.063Z,4.40
2022-08-01T01:29:06.629Z,4.03
2022-08-01T01:31:45.789Z,4.40
2022-08-01T01:34:19.033Z,4.70
2022-08-01T01:36:50.564Z,4.20
2022-08-01T01:39:20.847Z,4.70
2022-08-01T01:41:51.958Z,5.00
2022-08-01T01:44:22.540Z,4.07
2022-08-01T01:46:54.335Z,4.43
2022-08-01T01:49:26.572Z,4.00
2022-08-01T01:52:02.446Z,5.03
2022-08-01T01:54:35.773Z,4.80
2022-08-01T01:57:07.537Z,5.47
2022-08-01T01:59:42.396Z,4.40
2022-08-01T02:02:13.092Z,4.53
2022-08-01T02:04:45.889Z,4.70
2022-08-01T02:07:20.294Z,4.13
2022-08-01T02:09:53.759Z,4.87
2022-08-01T02:12:25.373Z,4.00
2022-08-01T02:14:57.816Z,4.40
2022-08-01T02:17:30.684Z,4.30
2022-08-01T02:20:00.721Z,3.97
2022-08-01T02:22:34.766Z,4.50
2022-08-01T02:25:13.113Z,4.90
2022-08-01T02:27:49.849Z,4.60
2022-08-01T02:30:22.794Z,4.37
2022-08-01T02:33:15.746Z,4.50
2022-08-01T02:36:30.666Z,4.70
2022-08-01T02:38:44.625Z,4.93
2022-08-01T02:41:20.990Z,4.60
2022-08-01T02:43:54.743Z,4.10
2022-08-01T02:46:37.270Z,4.47
2022-08-01T02:49:10.477Z,3.97
2022-08-01T02:51:41.925Z,4.10
2022-08-01T02:54:15.306Z,4.20
2022-08-01T02:56:45.833Z,3.90
2022-08-01T02:59:22.263Z,5.00
2022-08-01T03:01:57.686Z,4.63
2022-08-01T03:04:30.370Z,4.60
2022-08-01T03:07:00.492Z,4.40
2022-08-01T03:09:33.441Z,4.60
2022-08-01T03:12:09.186Z,3.90
2022-08-01T03:14:43.408Z,4.53
2022-08-01T03:17:14.312Z,4.57
2022-08-01T03:19:47.450Z,4.43
2022-08-01T03:22:21.452Z,4.30
2022-08-01T03:24:55.060Z,4.00
2022-08-01T03:27:27.921Z,4.20
2022-08-01T03:30:02.061Z,4.10
2022-08-01T03:32:39.513Z,4.57
2022-08-01T03:35:10.598Z,4.10
2022-08-01T03:38:13.562Z,4.63
2022-08-01T03:40:43.558Z,4.67
2022-08-01T03:43:22.646Z,3.67
2022-08-01T03:45:54.324Z,4.23
2022-08-01T03:48:32.090Z,4.20
2022-08-01T03:51:01.854Z,4.60
2022-08-01T03:53:34.664Z,4.20
2022-08-01T03:56:05.573Z,4.57
2022-08-01T03:58:38.527Z,4.37
2022-08-01T04:01:15.957Z,4.10
2022-08-01T04:03:47.765Z,3.67
2022-08-01T04:06:18.325Z,4.40
2022-08-01T04:08:56.793Z,4.57
2022-08-01T04:11:31.902Z,4.57
2022-08-01T04:14:01.115Z,4.03
2022-08-01T04:16:32.443Z,4.60
2022-08-01T04:19:03.398Z,4.20
2022-08-01T04:21:34.987Z,4.10
2022-08-01T04:24:13.388Z,4.30
2022-08-01T04:26:45.686Z,4.50
2022-08-01T04:29:18.307Z,4.33
2022-08-01T04:31:51.722Z,4.73
2022-08-01T04:34:27.080Z,4.87
2022-08-01T04:36:58.740Z,4.40
2022-08-01T04:39:31.970Z,4.23
2022-08-01T04:42:05.106Z,4.63
2022-08-01T04:44:35.301Z,4.60
2022-08-01T04:47:08.885Z,4.93
2022-08-01T04:49:49.264Z,4.30
2022-08-01T04:52:24.383Z,4.57
2022-08-01T04:54:55.547Z,4.13
2022-08-01T04:57:24.751Z,5.23
2022-08-01T04:59:57.888Z,4.73
2022-08-01T05:02:29.456Z,4.30
2022-08-01T05:05:00.138Z,3.87
2022-08-01T05:07:29.188Z,3.90
2022-08-01T05:10:02.545Z,4.20
2022-08-01T05:12:37.845Z,5.80
2022-08-01T05:15:15.256Z,4.80
2022-08-01T05:17:45.024Z,4.80
2022-08-01T05:20:18.479Z,4.67
2022-08-01T05:22:49.362Z,5.20
2022-08-01T05:25:56.972Z,6.00
2022-08-01T05:28:27.547Z,4.80
2022-08-01T05:30:59.027Z,5.03
2022-08-01T05:33:38.654Z,4.70
2022-08-01T05:36:12.230Z,5.13
2022-08-01T05:38:41.408Z,5.30
2022-08-01T05:41:12.615Z,5.00
2022-08-01T05:43:41.689Z,4.63
2022-08-01T05:46:11.214Z,5.10
2022-08-01T05:48:43.369Z,4.90
2022-08-01T05:51:14.454Z,4.90
2022-08-01T05:53:43.714Z,4.83
2022-08-01T05:56:15.519Z,5.27
2022-08-01T05:58:44.540Z,4.67
2022-08-01T06:01:13.861Z,4.73
2022-08-01T06:03:43.217Z,5.37
2022-08-01T06:06:15.376Z,5.00
2022-08-01T06:08:44.596Z,5.00
2022-08-01T06:11:13.742Z,5.07
2022-08-01T06:13:45.580Z,5.10
2022-08-01T06:16:18.397Z,5.30
2022-08-01T06:18:47.527Z,5.87
2022-08-01T06:21:20.739Z,4.50
2022-08-01T06:23:50.215Z,5.00
2022-08-01T06:26:22.803Z,4.30
2022-08-01T06:28:51.735Z,5.60
2022-08-01T06:31:20.818Z,5.80
2022-08-01T06:33:50.110Z,5.20
2022-08-01T06:36:22.918Z,6.13
2022-08-01T06:38:52.200Z,5.90
2022-08-01T06:41:26.808Z,5.20
2022-08-01T06:43:57.124Z,4.70
2022-08-01T06:46:30.263Z,4.63
2022-08-01T06:49:01.620Z,5.33
2022-08-01T06:51:32.294Z,5.60
2022-08-01T06:54:01.976Z,5.50
2022-08-01T06:56:31.264Z,5.30
2022-08-01T06:59:03.562Z,5.00
2022-08-01T07:01:35.029Z,4.90
2022-08-01T07:04:05.112Z,5.10
2022-08-01T07:06:35.823Z,5.50
2022-08-01T07:09:09.628Z,4.87
2022-08-01T07:11:43.502Z,5.13
2022-08-01T07:14:13.220Z,5.10
2022-08-01T07:16:42.488Z,5.80
2022-08-01T07:19:11.521Z,5.00
2022-08-01T07:21:42.331Z,4.73
2022-08-01T07:24:16.078Z,6.37
2022-08-01T07:26:53.494Z,5.07
2022-08-01T07:29:25.837Z,5.30
2022-08-01T07:31:57.574Z,5.47
2022-08-01T07:34:27.621Z,6.20
2022-08-01T07:36:59.415Z,6.77
2022-08-01T07:39:28.755Z,5.80
2022-08-01T07:42:06.396Z,6.40
2022-08-01T07:44:37.547Z,6.50
2022-08-01T07:47:07.599Z,5.53
2022-08-01T07:49:40.594Z,5.87
2022-08-01T07:52:13.957Z,5.07
2022-08-01T07:54:42.987Z,6.47
2022-08-01T07:57:13.827Z,5.70
2022-08-01T07:59:42.969Z,5.80
2022-08-01T08:02:14.050Z,4.93
2022-08-01T08:04:48.509Z,6.00
2022-08-01T08:07:47.003Z,5.70
2022-08-01T08:10:16.199Z,6.30
2022-08-01T08:12:49.620Z,6.77
2022-08-01T08:15:33.650Z,5.10
2022-08-01T08:18:06.311Z,5.33
2022-08-01T08:20:38.454Z,5.70
2022-08-01T08:23:49.253Z,6.20
2022-08-01T08:27:19.245Z,6.10
2022-08-01T08:29:52.661Z,6.77
2022-08-01T08:32:29.077Z,6.00
2022-08-01T08:35:13.710Z,5.87
2022-08-01T08:37:49.129Z,6.40
2022-08-01T08:40:27.355Z,5.07
2022-08-01T08:43:05.432Z,6.50
2022-08-01T08:45:59.004Z,5.70
2022-08-01T08:48:28.313Z,5.20
2022-08-01T08:51:00.197Z,5.30
2022-08-01T08:53:48.740Z,5.20
2022-08-01T08:56:19.773Z,5.23
2022-08-01T08:59:41.248Z,5.57
2022-08-01T09:02:12.525Z,5.50
2022-08-01T09:04:42.653Z,5.43
2022-08-01T09:07:15.344Z,5.00
2022-08-01T09:09:51.625Z,5.50
2022-08-01T09:12:22.465Z,6.13
2022-08-01T09:14:54.605Z,5.23
2022-08-01T09:17:24.320Z,5.10
2022-08-01T09:20:10.151Z,4.87
2022-08-01T09:22:46.171Z,4.90
2022-08-01T09:25:46.092Z,4.80
2022-08-01T09:28:30.959Z,5.67
2022-08-01T09:31:08.569Z,5.67
2022-08-01T09:33:59.070Z,4.30
2022-08-01T09:36:49.511Z,5.30
2022-08-01T09:39:19.029Z,4.80
2022-08-01T09:41:48.598Z,4.53
2022-08-01T09:44:31.394Z,4.90
2022-08-01T09:47:10.786Z,4.27
2022-08-01T09:49:50.711Z,4.40
2022-08-01T09:52:25.935Z,3.83
2022-08-01T09:54:59.806Z,4.33
2022-08-01T09:57:30.314Z,4.03
2022-08-01T10:00:03.147Z,4.23
2022-08-01T10:02:35.681Z,4.43
2022-08-01T10:05:08.778Z,3.37
2022-08-01T10:07:57.985Z,3.77
2022-08-01T10:10:31.784Z,4.40
2022-08-01T10:13:03.317Z,3.87
2022-08-01T10:15:36.994Z,3.90
2022-08-01T10:18:16.231Z,4.30
2022-08-01T10:20:56.646Z,4.03
2022-08-01T10:23:40.767Z,3.80
2022-08-01T10:26:12.964Z,4.13
2022-08-01T10:28:47.435Z,3.50
2022-08-01T10:31:20.545Z,3.93
2022-08-01T10:34:01.281Z,4.10
2022-08-01T10:36:32.341Z,3.63
2022-08-01T10:39:02.220Z,4.20
2022-08-01T10:41:31.646Z,4.30
2022-08-01T10:44:01.834Z,3.67
2022-08-01T10:46:33.563Z,3.43
2022-08-01T10:49:08.500Z,3.80
2022-08-01T10:51:52.158Z,3.83
2022-08-01T10:54:22.231Z,3.77
2022-08-01T10:56:57.414Z,3.87
2022-08-01T10:59:51.126Z,4.03
2022-08-01T11:02:34.591Z,3.80
2022-08-01T11:05:14.288Z,3.07
2022-08-01T11:07:50.565Z,3.60
2022-08-01T11:10:27.463Z,4.00
2022-08-01T11:12:57.672Z,3.70
2022-08-01T11:15:29.244Z,3.53
2022-08-01T11:18:27.517Z,3.27
2022-08-01T11:21:56.859Z,3.27
2022-08-01T11:23:54.541Z,2.90
2022-08-01T11:26:28.935Z,3.50
2022-08-01T11:29:22.082Z,3.37
2022-08-01T11:31:53.985Z,3.10
2022-08-01T11:34:56.385Z,2.43
2022-08-01T11:37:30.405Z,2.60
2022-08-01T11:40:22.849Z,2.97
2022-08-01T11:43:20.376Z,2.73
2022-08-01T11:46:08.105Z,2.73
2022-08-01T11:48:38.530Z,2.60
2022-08-01T11:51:23.930Z,2.40
2022-08-01T11:54:13.225Z,2.43
2022-08-01T11:56:44.789Z,2.20
2022-08-01T11:59:15.860Z,2.73
2022-08-01T12:01:45.269Z,2.33
2022-08-01T12:04:14.558Z,2.43
2022-08-01T12:06:47.567Z,2.37
2022-08-01T12:09:21.656Z,2.90
2022-08-01T12:11:51.281Z,2.60
2022-08-01T12:14:23.890Z,2.47
2022-08-01T12:16:56.931Z,2.10
2022-08-01T12:19:27.408Z,2.20
2022-08-01T12:22:14.221Z,2.13
2022-08-01T12:24:45.037Z,2.50
2022-08-01T12:27:26.790Z,2.03
2022-08-01T12:29:56.780Z,1.97
2022-08-01T12:32:35.622Z,1.87
2022-08-01T12:35:08.097Z,1.97
2022-08-01T12:37:41.233Z,2.27
2022-08-01T12:40:20.783Z,2.10
2022-08-01T12:42:56.245Z,1.87
2022-08-01T12:45:30.207Z,1.90
2022-08-01T12:48:01.902Z,2.07
2022-08-01T12:50:33.166Z,2.83
2022-08-01T12:53:05.095Z,2.07
2022-08-01T12:55:38.222Z,2.20
2022-08-01T12:58:33.374Z,2.00
2022-08-01T13:01:07.832Z,2.03
2022-08-01T13:03:40.272Z,1.93
2022-08-01T13:06:16.252Z,2.30
2022-08-01T13:08:48.364Z,2.10
2022-08-01T13:11:19.915Z,2.20
2022-08-01T13:13:51.781Z,2.40
2022-08-01T13:16:31.258Z,1.90
2022-08-01T13:19:08.244Z,2.07
2022-08-01T13:21:53.010Z,1.90
2022-08-01T13:24:29.380Z,2.20
2022-08-01T13:27:01.696Z,2.23
2022-08-01T13:29:39.024Z,1.90
2022-08-01T13:32:28.735Z,2.87
2022-08-01T13:35:07.116Z,2.17
2022-08-01T13:37:38.639Z,1.90
2022-08-01T13:40:13.324Z,1.80
2022-08-01T13:42:42.459Z,1.80
2022-08-01T13:45:14.863Z,2.00
2022-08-01T13:48:04.109Z,2.20
2022-08-01T13:50:34.376Z,2.17
2022-08-01T13:53:03.497Z,2.00
2022-08-01T13:55:35.454Z,2.10
2022-08-01T13:58:05.183Z,1.77
2022-08-01T14:00:34.526Z,2.00
2022-08-01T14:03:03.270Z,2.10
2022-08-01T14:05:32.816Z,2.13
2022-08-01T14:08:02.083Z,2.80
2022-08-01T14:10:32.617Z,2.40
2022-08-01T14:13:01.974Z,1.90
2022-08-01T14:15:37.941Z,1.83
2022-08-01T14:18:10.546Z,2.20
2022-08-01T14:20:40.789Z,2.10
2022-08-01T14:23:10.667Z,1.90
2022-08-01T14:26:02.488Z,1.50
2022-08-01T14:28:32.453Z,1.97
2022-08-01T14:31:02.113Z,1.93
2022-08-01T14:33:31.970Z,1.93
2022-08-01T14:36:28.770Z,1.53
2022-08-01T14:38:53.025Z,1.80
2022-08-01T14:41:23.802Z,2.10
2022-08-01T14:43:52.815Z,1.87
2022-08-01T14:46:21.763Z,2.00
2022-08-01T14:48:50.621Z,2.07
2022-08-01T14:51:19.706Z,1.90
2022-08-01T14:53:50.653Z,1.60
2022-08-01T14:56:19.991Z,2.20
2022-08-01T14:58:50.935Z,1.87
2022-08-01T15:01:20.127Z,1.80
2022-08-01T15:03:51.534Z,2.00
2022-08-01T15:06:20.545Z,2.50
2022-08-01T15:08:49.680Z,2.17
2022-08-01T15:11:18.748Z,1.90
2022-08-01T15:14:07.595Z,2.07
2022-08-01T15:16:38.360Z,2.20
2022-08-01T15:19:07.944Z,2.73
2022-08-01T15:21:41.967Z,2.40
2022-08-01T15:24:11.673Z,2.47
2022-08-01T15:26:40.726Z,2.53
2022-08-01T15:29:10.135Z,3.20
2022-08-01T15:31:40.648Z,2.90
2022-08-01T15:34:09.716Z,2.90
2022-08-01T15:36:41.939Z,2.30
2022-08-01T15:39:12.807Z,3.20
2022-08-01T15:41:42.283Z,2.90
2022-08-01T15:44:11.676Z,3.30
2022-08-01T15:46:42.909Z,2.97
2022-08-01T15:49:12.321Z,2.90
2022-08-01T15:51:41.899Z,3.43
2022-08-01T15:54:14.621Z,3.00
2022-08-01T15:56:44.594Z,3.07
2022-08-01T15:59:13.858Z,3.17
2022-08-01T16:01:44.669Z,3.17
2022-08-01T16:04:13.896Z,3.67
2022-08-01T16:06:43.241Z,2.67
2022-08-01T16:09:19.112Z,2.93
2022-08-01T16:11:50.939Z,3.10
2022-08-01T16:14:21.685Z,2.87
2022-08-01T16:16:54.519Z,2.70
2022-08-01T16:19:24.425Z,3.37
2022-08-01T16:21:54.004Z,3.03
2022-08-01T16:24:23.810Z,2.97
2022-08-01T16:26:53.482Z,2.97
2022-08-01T16:29:22.527Z,2.87
2022-08-01T16:32:03.317Z,2.70
2022-08-01T16:34:46.933Z,2.57
2022-08-01T16:37:17.407Z,3.43
2022-08-01T16:39:47.515Z,2.50
2022-08-01T16:42:16.596Z,3.30
2022-08-01T16:44:45.695Z,3.10
2022-08-01T16:47:16.242Z,3.70
2022-08-01T16:49:45.385Z,3.50
2022-08-01T16:52:14.950Z,3.40
2022-08-01T16:54:44.271Z,3.17
2022-08-01T16:57:13.778Z,3.40
2022-08-01T16:59:43.118Z,3.50
2022-08-01T17:02:13.105Z,4.00
2022-08-01T17:04:43.416Z,3.50
2022-08-01T17:07:12.992Z,3.27
2022-08-01T17:09:43.671Z,3.30
2022-08-01T17:12:21.005Z,3.90
2022-08-01T17:14:52.114Z,3.47
2022-08-01T17:17:24.113Z,3.33
2022-08-01T17:19:54.914Z,4.00
2022-08-01T17:22:23.996Z,3.40
2022-08-01T17:25:18.145Z,3.10
2022-08-01T17:27:47.211Z,3.17
2022-08-01T17:30:16.144Z,3.47
2022-08-01T17:32:48.002Z,3.30
2022-08-01T17:35:18.509Z,3.17
2022-08-01T17:37:47.872Z,3.10
2022-08-01T17:40:38.981Z,3.20
2022-08-01T17:43:07.295Z,3.73
2022-08-01T17:45:48.859Z,4.20
2022-08-01T17:48:19.739Z,3.30
2022-08-01T17:50:50.944Z,2.80
2022-08-01T17:53:21.437Z,3.50
2022-08-01T17:55:56.938Z,3.30
2022-08-01T17:58:45.074Z,3.57
2022-08-01T18:01:18.468Z,3.17
2022-08-01T18:03:48.096Z,3.20
2022-08-01T18:06:23.186Z,3.47
2022-08-01T18:08:56.191Z,3.70
2022-08-01T18:11:27.162Z,3.30
2022-08-01T18:13:59.598Z,3.70
2022-08-01T18:16:29.123Z,3.63
2022-08-01T18:18:58.287Z,3.50
2022-08-01T18:21:28.889Z,3.40
2022-08-01T18:23:57.639Z,2.80
2022-08-01T18:26:26.943Z,3.47
2022-08-01T18:28:56.006Z,3.70
2022-08-01T18:31:27.605Z,3.07
2022-08-01T18:33:56.845Z,4.00
2022-08-01T18:36:33.343Z,3.10
2022-08-01T18:39:10.523Z,3.50
2022-08-01T18:41:40.656Z,3.50
2022-08-01T18:44:10.451Z,3.07
2022-08-01T18:46:40.680Z,3.63
2022-08-01T18:49:13.206Z,3.70
2022-08-01T18:51:45.178Z,3.50
2022-08-01T18:54:18.161Z,3.83
2022-08-01T18:56:47.641Z,3.33
2022-08-01T18:59:16.993Z,4.20
2022-08-01T19:01:46.153Z,4.03
2022-08-01T19:04:15.337Z,3.90
2022-08-01T19:06:47.469Z,4.60
2022-08-01T19:09:20.831Z,3.97
2022-08-01T19:11:49.883Z,3.60
2022-08-01T19:14:19.079Z,3.73
2022-08-01T19:16:48.439Z,3.60
2022-08-01T19:19:24.765Z,3.93
2022-08-01T19:21:57.303Z,4.20
2022-08-01T19:24:28.032Z,4.00
2022-08-01T19:27:05.219Z,4.40
2022-08-01T19:29:40.633Z,3.97
2022-08-01T19:32:11.544Z,4.90
2022-08-01T19:34:50.528Z,3.40
2022-08-01T19:37:25.377Z,4.33
2022-08-01T19:39:59.370Z,4.10
2022-08-01T19:42:30.105Z,4.00
2022-08-01T19:44:59.564Z,3.47
2022-08-01T19:47:56.216Z,4.03
2022-08-01T19:50:17.797Z,4.10
2022-08-01T19:52:48.761Z,4.93
2022-08-01T19:55:20.060Z,4.30
2022-08-01T19:58:10.499Z,4.00
2022-08-01T20:00:41.127Z,4.00
2022-08-01T20:03:11.781Z,4.03
2022-08-01T20:05:41.437Z,3.90
2022-08-01T20:08:11.389Z,3.63
2022-08-01T20:10:42.421Z,4.03
2022-08-01T20:13:13.248Z,4.90
2022-08-01T20:15:45.850Z,4.30
2022-08-01T20:18:15.139Z,4.40
2022-08-01T20:20:46.157Z,4.30
2022-08-01T20:23:18.173Z,4.70
2022-08-01T20:25:52.983Z,4.80
2022-08-01T20:28:28.075Z,4.20
2022-08-01T20:31:05.747Z,4.10
2022-08-01T20:33:38.251Z,4.13
2022-08-01T20:36:11.970Z,3.97
2022-08-01T20:38:56.520Z,4.70
2022-08-01T20:41:28.996Z,3.77
2022-08-01T20:44:00.095Z,4.10
2022-08-01T20:46:30.815Z,3.80
2022-08-01T20:49:00.663Z,4.60
2022-08-01T20:51:31.583Z,4.40
2022-08-01T20:54:01.053Z,5.40
2022-08-01T20:56:39.418Z,4.00
2022-08-01T20:59:39.450Z,3.97
2022-08-01T21:02:10.489Z,4.17
2022-08-01T21:04:54.772Z,4.70
2022-08-01T21:07:28.835Z,4.20
2022-08-01T21:10:07.946Z,4.50
2022-08-01T21:12:46.432Z,3.93
2022-08-01T21:15:26.849Z,4.20
2022-08-01T21:18:03.873Z,4.07
2022-08-01T21:20:37.399Z,4.10
2022-08-01T21:23:16.677Z,4.07
2022-08-01T21:25:46.689Z,4.70
2022-08-01T21:28:17.441Z,4.10
2022-08-01T21:30:55.656Z,4.40
2022-08-01T21:33:27.903Z,4.40
2022-08-01T21:36:04.288Z,3.83
2022-08-01T21:38:40.273Z,4.37
2022-08-01T21:41:10.368Z,4.60
2022-08-01T21:43:44.551Z,4.13
2022-08-01T21:46:14.782Z,4.50
2022-08-01T21:48:44.792Z,4.30
2022-08-01T21:51:28.965Z,3.30
2022-08-01T21:54:10.312Z,4.40
2022-08-01T21:56:50.776Z,5.10
2022-08-01T21:59:31.003Z,3.80
2022-08-01T22:02:05.052Z,3.83
2022-08-01T22:04:43.739Z,4.23
2022-08-01T22:07:15.783Z,4.90
2022-08-01T22:09:47.848Z,4.87
2022-08-01T22:12:19.120Z,4.30
2022-08-01T22:14:51.500Z,4.30
2022-08-01T22:17:24.137Z,4.50
2022-08-01T22:19:55.155Z,4.40
2022-08-01T22:22:34.233Z,4.13
2022-08-01T22:25:14.594Z,4.23
2022-08-01T22:28:06.570Z,4.67
2022-08-01T22:30:36.634Z,3.70
2022-08-01T22:33:08.088Z,3.73
2022-08-01T22:35:47.729Z,4.03
2022-08-01T22:38:19.631Z,4.00
2022-08-01T22:40:51.980Z,4.67
2022-08-01T22:43:28.003Z,4.50
2022-08-01T22:46:27.554Z,4.13
2022-08-01T22:49:09.031Z,4.10
2022-08-01T22:51:54.421Z,4.10
2022-08-01T22:54:32.050Z,4.60
2022-08-01T22:57:07.496Z,4.10
2022-08-01T22:59:48.557Z,3.80
2022-08-01T23:02:20.868Z,3.80
2022-08-01T23:04:53.427Z,4.27
2022-08-01T23:07:27.429Z,4.63
2022-08-01T23:09:58.444Z,4.10
2022-08-01T23:12:29.113Z,4.33
2022-08-01T23:15:00.151Z,5.33
2022-08-01T23:17:32.889Z,3.67
2022-08-01T23:20:06.250Z,4.37
2022-08-01T23:22:38.597Z,4.53
2022-08-01T23:25:10.307Z,4.20
2022-08-01T23:27:51.830Z,4.40
2022-08-01T23:30:33.072Z,4.67
2022-08-01T23:33:04.552Z,4.53
2022-08-01T23:35:38.800Z,4.10
2022-08-01T23:38:10.263Z,3.83
2022-08-01T23:40:39.994Z,4.00
2022-08-01T23:43:16.848Z,4.57
2022-08-01T23:46:03.790Z,4.50
2022-08-01T23:48:36.997Z,3.90
2022-08-01T23:51:09.385Z,4.30
2022-08-01T23:53:40.535Z,4.37
2022-08-01T23:56:10.438Z,4.63
2022-08-01T23:58:41.894Z,4.50
